createdAt,value
2018-11-02T00:02:24.117Z,9.50
2018-11-02T00:05:07.499Z,9.50
2018-11-02T00:07:59.648Z,9.50
2018-11-02T00:10:44.753Z,9.50
2018-11-02T00:16:09.969Z,9.40
2018-11-02T00:18:56.142Z,9.40
2018-11-02T00:21:39.440Z,9.40
2018-11-02T00:24:19.491Z,9.50
2018-11-02T00:27:06.799Z,9.50
2018-11-02T00:29:59.096Z,9.40
2018-11-02T00:33:00.934Z,9.40
2018-11-02T00:35:45.742Z,9.40
2018-11-02T00:38:29.955Z,9.40
2018-11-02T00:41:14.594Z,9.40
2018-11-02T00:43:58.635Z,9.50
2018-11-02T00:46:45.765Z,9.50
2018-11-02T00:49:33.243Z,9.50
2018-11-02T00:52:22.940Z,9.50
2018-11-02T00:55:11.727Z,9.50
2018-11-02T01:04:54.932Z,9.60
2018-11-02T01:07:56.831Z,9.60
2018-11-02T01:11:22.672Z,9.60
2018-11-02T01:14:05.033Z,9.60
2018-11-02T01:19:55.887Z,9.50
2018-11-02T01:22:33.522Z,9.50
2018-11-02T01:25:28.167Z,9.50
2018-11-02T01:33:54.587Z,9.50
2018-11-02T01:36:36.030Z,9.50
2018-11-02T01:39:19.592Z,9.50
2018-11-02T01:42:00.009Z,9.50
2018-11-02T01:47:34.941Z,9.50
2018-11-02T01:50:25.429Z,9.50
2018-11-02T01:53:12.181Z,9.50
2018-11-02T01:55:57.153Z,9.50
2018-11-02T01:58:41.154Z,9.40
2018-11-02T02:01:26.746Z,9.50
2018-11-02T02:04:00.712Z,9.40
2018-11-02T02:06:40.298Z,9.50
2018-11-02T02:09:23.710Z,9.50
2018-11-02T02:12:04.237Z,9.50
2018-11-02T02:14:42.075Z,9.40
2018-11-02T02:17:19.939Z,9.50
2018-11-02T02:20:04.537Z,9.50
2018-11-02T02:22:39.880Z,9.50
2018-11-02T02:25:25.779Z,9.50
2018-11-02T02:28:12.292Z,9.50
2018-11-02T02:31:34.612Z,9.50
2018-11-02T02:34:30.333Z,9.50
2018-11-02T02:37:24.563Z,9.50
2018-11-02T02:40:03.898Z,9.50
2018-11-02T02:45:26.202Z,9.50
2018-11-02T02:48:04.574Z,9.50
2018-11-02T02:50:44.081Z,9.50
2018-11-02T02:53:19.684Z,9.50
2018-11-02T02:55:59.110Z,9.50
2018-11-02T02:58:44.114Z,9.50
2018-11-02T03:01:29.870Z,9.50
2018-11-02T03:04:04.010Z,9.50
2018-11-02T03:06:39.867Z,9.50
2018-11-02T03:10:20.923Z,9.50
2018-11-02T03:13:04.822Z,9.50
2018-11-02T03:15:39.160Z,9.50
2018-11-02T03:18:13.178Z,9.50
2018-11-02T03:20:44.587Z,9.50
2018-11-02T03:23:15.058Z,9.40
2018-11-02T03:25:45.855Z,9.40
2018-11-02T03:28:19.664Z,9.40
2018-11-02T03:30:51.617Z,9.40
2018-11-02T03:33:40.713Z,9.40
2018-11-02T03:36:12.356Z,9.40
2018-11-02T03:41:23.652Z,9.40
2018-11-02T03:43:56.007Z,9.40
2018-11-02T03:46:26.900Z,9.40
2018-11-02T03:52:17.751Z,9.50
2018-11-02T03:54:59.175Z,9.50
2018-11-02T03:57:31.719Z,9.40
2018-11-02T04:00:03.058Z,9.40
2018-11-02T04:02:35.777Z,9.40
2018-11-02T04:05:10.845Z,9.50
2018-11-02T04:07:51.297Z,9.50
2018-11-02T04:11:18.789Z,9.50
2018-11-02T04:13:58.020Z,9.50
2018-11-02T04:16:29.550Z,9.40
2018-11-02T04:19:01.501Z,9.40
2018-11-02T04:21:44.087Z,9.40
2018-11-02T04:24:18.657Z,9.40
2018-11-02T04:26:51.761Z,9.40
2018-11-02T04:29:34.109Z,9.40
2018-11-02T04:32:07.295Z,9.30
2018-11-02T04:34:38.064Z,9.30
2018-11-02T04:37:09.274Z,9.30
2018-11-02T04:42:33.721Z,9.30
2018-11-02T04:45:05.584Z,9.30
2018-11-02T04:47:36.989Z,9.30
2018-11-02T04:53:23.387Z,9.30
2018-11-02T04:56:02.146Z,9.30
2018-11-02T04:58:33.609Z,9.30
2018-11-02T05:01:05.295Z,9.30
2018-11-02T05:03:38.444Z,9.30
2018-11-02T05:06:09.438Z,9.30
2018-11-02T05:08:43.392Z,9.30
2018-11-02T05:11:20.417Z,9.30
2018-11-02T05:13:52.021Z,9.30
2018-11-02T05:16:24.584Z,9.30
2018-11-02T05:19:01.951Z,9.20
2018-11-02T05:21:40.623Z,9.20
2018-11-02T05:24:33.572Z,9.20
2018-11-02T05:27:08.566Z,9.20
2018-11-02T05:29:42.677Z,9.20
2018-11-02T05:32:13.802Z,9.20
2018-11-02T05:58:02.409Z,9.00
2018-11-02T06:00:32.068Z,8.90
2018-11-02T06:03:03.221Z,8.80
2018-11-02T06:05:35.220Z,8.90
2018-11-02T06:08:12.920Z,8.90
2018-11-02T06:10:49.164Z,8.90
2018-11-02T06:13:19.089Z,9.00
2018-11-02T06:16:01.914Z,8.90
2018-11-02T06:18:37.357Z,8.90
2018-11-02T06:21:11.872Z,9.00
2018-11-02T06:23:52.568Z,9.00
2018-11-02T06:26:32.154Z,9.00
2018-11-02T06:29:14.321Z,9.00
2018-11-02T06:31:44.371Z,9.00
2018-11-02T06:34:15.079Z,9.10
2018-11-02T06:36:50.945Z,9.10
2018-11-02T06:39:33.961Z,9.10
2018-11-02T06:42:18.114Z,9.10
2018-11-02T06:44:57.355Z,9.10
2018-11-02T06:47:35.119Z,9.10
2018-11-02T06:50:13.314Z,9.20
2018-11-02T06:52:48.453Z,9.20
2018-11-02T06:55:23.050Z,9.20
2018-11-02T06:58:08.483Z,9.20
2018-11-02T07:00:56.134Z,9.30
2018-11-02T07:03:29.767Z,9.30
2018-11-02T07:06:02.399Z,9.40
2018-11-02T07:22:09.556Z,9.40
2018-11-02T07:24:42.651Z,9.40
2018-11-02T07:27:13.284Z,9.40
2018-11-02T07:33:05.507Z,9.50
2018-11-02T07:35:38.582Z,9.50
2018-11-02T07:38:17.404Z,9.60
2018-11-02T07:40:54.714Z,9.60
2018-11-02T07:49:03.155Z,9.70
2018-11-02T07:51:35.042Z,9.90
2018-11-02T07:56:59.193Z,10.10
2018-11-02T08:02:31.782Z,10.30
2018-11-02T08:05:04.233Z,10.40
2018-11-02T08:07:36.635Z,10.50
2018-11-02T08:10:10.517Z,10.60
2018-11-02T08:13:13.945Z,10.60
2018-11-02T08:15:53.384Z,10.70
2018-11-02T08:18:32.074Z,10.70
2018-11-02T08:21:12.325Z,10.80
2018-11-02T08:23:45.863Z,10.80
2018-11-02T08:26:26.678Z,11.00
2018-11-02T08:29:11.547Z,11.10
2018-11-02T08:35:48.671Z,11.20
2018-11-02T08:44:27.087Z,11.50
2018-11-02T08:47:12.695Z,11.50
2018-11-02T08:49:52.488Z,11.50
2018-11-02T08:52:29.054Z,11.60
2018-11-02T08:55:49.994Z,11.60
2018-11-02T08:58:38.177Z,11.60
2018-11-02T09:01:22.209Z,11.60
2018-11-02T09:04:05.545Z,11.60
2018-11-02T09:06:52.755Z,11.60
2018-11-02T09:09:41.441Z,11.70
2018-11-02T09:12:14.010Z,11.80
2018-11-02T09:14:54.638Z,11.80
2018-11-02T09:17:28.073Z,11.90
2018-11-02T09:20:14.072Z,12.00
2018-11-02T09:22:45.644Z,12.00
2018-11-02T09:25:21.988Z,12.10
2018-11-02T09:28:00.513Z,12.20
2018-11-02T09:30:39.846Z,12.20
2018-11-02T09:33:17.740Z,12.30
2018-11-02T09:35:49.904Z,12.40
2018-11-02T09:48:44.916Z,12.50
2018-11-02T09:51:17.887Z,12.40
2018-11-02T09:53:52.290Z,12.40
2018-11-02T09:56:32.638Z,12.40
2018-11-02T09:59:19.930Z,12.40
2018-11-02T10:01:53.109Z,12.30
2018-11-02T10:04:31.087Z,12.40
2018-11-02T10:14:38.521Z,12.60
2018-11-02T10:17:11.481Z,12.40
2018-11-02T10:35:33.378Z,12.40
2018-11-02T10:38:14.644Z,12.50
2018-11-02T10:41:15.417Z,12.70
2018-11-02T10:43:49.553Z,12.80
2018-11-02T10:49:17.858Z,13.00
2018-11-02T10:51:48.416Z,13.00
2018-11-02T10:54:27.241Z,13.10
2018-11-02T10:56:57.451Z,13.10
2018-11-02T10:59:33.622Z,13.20
2018-11-02T11:02:17.842Z,13.20
2018-11-02T11:04:52.556Z,13.30
2018-11-02T11:07:24.621Z,13.40
2018-11-02T11:09:56.569Z,13.50
2018-11-02T11:12:38.263Z,13.60
2018-11-02T11:15:18.285Z,13.70
2018-11-02T11:17:56.853Z,13.80
2018-11-02T11:20:31.923Z,13.80
2018-11-02T11:23:02.223Z,13.80
2018-11-02T11:26:43.809Z,13.70
2018-11-02T11:29:14.253Z,13.70
2018-11-02T11:32:25.536Z,13.80
2018-11-02T11:34:56.864Z,13.80
2018-11-02T11:44:36.378Z,13.80
2018-11-02T12:00:51.920Z,13.70
2018-11-02T12:03:25.693Z,13.90
2018-11-02T12:05:57.866Z,14.00
2018-11-02T12:28:45.574Z,14.00
2018-11-02T12:31:19.944Z,14.00
2018-11-02T12:33:51.286Z,14.00
2018-11-02T12:36:32.488Z,14.00
2018-11-02T12:39:08.353Z,14.10
2018-11-02T12:41:46.375Z,14.10
2018-11-02T12:44:21.774Z,14.20
2018-11-02T12:46:56.281Z,14.20
2018-11-02T12:49:28.630Z,14.30
2018-11-02T12:51:58.259Z,14.40
2018-11-02T12:54:33.888Z,14.50
2018-11-02T13:00:24.675Z,14.60
2018-11-02T13:03:01.762Z,14.60
2018-11-02T13:05:38.045Z,14.70
2018-11-02T13:08:10.383Z,14.70
2018-11-02T13:10:43.529Z,14.80
2018-11-02T13:13:45.662Z,14.90
2018-11-02T13:16:35.322Z,14.80
2018-11-02T13:19:08.202Z,14.80
2018-11-02T13:21:40.021Z,14.70
2018-11-02T13:24:39.472Z,14.70
2018-11-02T13:27:22.531Z,14.80
2018-11-02T13:30:15.703Z,14.90
2018-11-02T13:33:19.020Z,14.90
2018-11-02T13:36:03.081Z,14.90
2018-11-02T13:38:45.320Z,14.90
2018-11-02T13:41:27.357Z,14.80
2018-11-02T13:43:59.315Z,14.80
2018-11-02T13:46:28.949Z,14.90
2018-11-02T13:49:02.437Z,14.90
2018-11-02T13:51:33.520Z,14.90
2018-11-02T13:54:06.400Z,14.90
2018-11-02T13:56:36.085Z,14.90
2018-11-02T13:59:06.015Z,14.90
2018-11-02T14:01:40.300Z,14.90
2018-11-02T14:04:09.829Z,14.90
2018-11-02T14:06:44.668Z,14.90
2018-11-02T14:09:20.234Z,14.90
2018-11-02T14:12:01.763Z,15.00
2018-11-02T14:14:40.246Z,15.00
2018-11-02T14:17:20.403Z,15.00
2018-11-02T14:19:52.705Z,14.90
2018-11-02T14:22:32.410Z,14.90
2018-11-02T14:25:15.251Z,14.80
2018-11-02T14:27:54.009Z,14.80
2018-11-02T14:33:51.946Z,14.80
2018-11-02T14:37:06.977Z,14.70
2018-11-02T14:45:29.261Z,14.50
2018-11-02T14:48:11.672Z,14.50
2018-11-02T15:15:34.234Z,14.50
2018-11-02T15:18:23.039Z,14.00
2018-11-02T15:21:05.327Z,14.00
2018-11-02T15:23:43.961Z,14.00
2018-11-02T15:31:07.057Z,14.00
2018-11-02T15:45:27.807Z,14.00
2018-11-02T15:48:23.337Z,14.00
2018-11-02T16:08:56.902Z,13.90
2018-11-02T16:11:34.934Z,13.80
2018-11-02T16:22:37.963Z,13.80
2018-11-02T16:28:04.642Z,13.70
2018-11-02T16:30:35.391Z,13.80
2018-11-02T16:33:23.805Z,13.80
2018-11-02T16:39:49.929Z,13.70
2018-11-02T16:42:20.389Z,13.70
2018-11-02T16:44:55.455Z,13.70
2018-11-02T16:47:41.899Z,13.80
2018-11-02T16:50:14.231Z,13.80
2018-11-02T16:53:00.795Z,13.70
2018-11-02T16:55:52.748Z,13.70
2018-11-02T16:58:34.245Z,13.70
2018-11-02T17:01:18.755Z,13.70
2018-11-02T17:03:59.023Z,13.60
2018-11-02T17:06:54.437Z,13.70
2018-11-02T17:09:33.074Z,13.60
2018-11-02T17:12:27.054Z,13.60
2018-11-02T17:15:10.194Z,13.60
2018-11-02T17:20:35.753Z,13.50
2018-11-02T17:23:15.581Z,13.50
2018-11-02T17:25:53.757Z,13.50
2018-11-02T17:28:36.674Z,13.50
2018-11-02T17:31:16.764Z,13.50
2018-11-02T17:34:16.139Z,13.50
2018-11-02T17:37:07.195Z,13.50
2018-11-02T17:39:56.079Z,13.40
2018-11-02T17:42:47.794Z,13.20
2018-11-02T17:45:27.650Z,13.10
2018-11-02T17:48:09.548Z,13.10
2018-11-02T17:51:22.888Z,13.00
2018-11-02T17:54:01.189Z,13.00
2018-11-02T17:57:10.572Z,13.00
2018-11-02T17:59:51.196Z,12.90
2018-11-02T18:02:26.024Z,12.90
2018-11-02T18:05:09.581Z,12.90
2018-11-02T18:08:09.844Z,12.90
2018-11-02T18:10:43.469Z,12.90
2018-11-02T18:13:21.408Z,12.90
2018-11-02T18:15:58.537Z,12.90
2018-11-02T18:18:39.016Z,12.90
2018-11-02T18:21:09.747Z,12.80
2018-11-02T18:23:40.595Z,12.80
2018-11-02T18:26:23.021Z,12.80
2018-11-02T18:29:10.161Z,12.70
2018-11-02T18:31:44.191Z,12.70
2018-11-02T18:34:20.073Z,12.60
2018-11-02T18:37:02.449Z,12.60
2018-11-02T18:39:38.809Z,12.60
2018-11-02T18:42:14.349Z,12.60
2018-11-02T18:44:46.680Z,12.60
2018-11-02T18:47:37.484Z,12.70
2018-11-02T18:53:13.478Z,12.70
2018-11-02T18:55:43.291Z,12.70
2018-11-02T18:58:13.718Z,12.70
2018-11-02T19:00:50.432Z,12.70
2018-11-02T19:03:29.272Z,12.70
2018-11-02T19:06:01.041Z,12.70
2018-11-02T19:11:38.125Z,12.70
2018-11-02T19:14:25.650Z,12.70
2018-11-02T19:17:04.424Z,12.70
2018-11-02T19:19:34.576Z,12.70
2018-11-02T19:22:06.512Z,12.60
2018-11-02T19:24:36.545Z,12.60
2018-11-02T19:28:43.977Z,12.50
2018-11-02T19:31:14.981Z,12.50
2018-11-02T19:33:45.176Z,12.40
2018-11-02T19:36:14.950Z,12.40
2018-11-02T19:38:48.181Z,12.40
2018-11-02T19:41:28.655Z,12.40
2018-11-02T19:44:05.030Z,12.40
2018-11-02T19:46:35.144Z,12.40
2018-11-02T19:49:06.787Z,12.40
2018-11-02T19:51:40.444Z,12.30
2018-11-02T19:54:10.573Z,12.30
2018-11-02T19:56:44.334Z,12.30
2018-11-02T19:59:15.415Z,12.30
2018-11-02T20:01:56.891Z,12.30
2018-11-02T20:04:32.336Z,12.30
2018-11-02T20:07:02.489Z,12.30
2018-11-02T20:09:33.178Z,12.30
2018-11-02T20:12:03.580Z,12.30
2018-11-02T20:14:36.134Z,12.20
2018-11-02T20:17:07.245Z,12.20
2018-11-02T20:19:37.359Z,12.20
2018-11-02T20:22:07.436Z,12.20
2018-11-02T20:24:50.799Z,12.20
2018-11-02T20:27:28.187Z,12.20
2018-11-02T20:30:02.637Z,12.20
2018-11-02T20:32:36.854Z,12.20
2018-11-02T20:35:09.884Z,12.20
2018-11-02T20:37:40.530Z,12.20
2018-11-02T20:40:13.260Z,12.20
2018-11-02T20:42:46.772Z,12.20
2018-11-02T20:45:24.537Z,12.20
2018-11-02T20:47:57.106Z,12.20
2018-11-02T20:50:32.678Z,12.20
2018-11-02T20:53:11.998Z,12.20
2018-11-02T20:55:42.670Z,12.10
2018-11-02T20:58:12.275Z,12.00
2018-11-02T21:00:44.076Z,12.00
2018-11-02T21:03:16.010Z,12.00
2018-11-02T21:05:47.340Z,11.90
2018-11-02T21:08:17.753Z,11.80
2018-11-02T21:11:01.889Z,11.70
2018-11-02T21:13:48.068Z,11.70
2018-11-02T21:16:19.597Z,11.60
2018-11-02T21:18:51.989Z,11.60
2018-11-02T21:21:27.303Z,11.60
2018-11-02T21:23:59.440Z,11.50
2018-11-02T21:26:30.557Z,11.50
2018-11-02T21:29:04.790Z,11.50
2018-11-02T21:31:40.440Z,11.50
2018-11-02T21:34:11.143Z,11.50
2018-11-02T21:36:41.974Z,11.50
2018-11-02T21:39:20.484Z,11.50
2018-11-02T21:41:51.031Z,11.50
2018-11-02T21:44:21.875Z,11.40
2018-11-02T21:46:55.171Z,11.40
2018-11-02T21:49:26.272Z,11.40
2018-11-02T21:54:46.374Z,11.30
2018-11-02T21:57:17.866Z,11.30
2018-11-02T21:59:48.337Z,11.20
2018-11-02T22:02:18.305Z,11.20
2018-11-02T22:04:54.092Z,11.20
2018-11-02T22:07:25.999Z,11.20
2018-11-02T22:09:56.272Z,11.10
2018-11-02T22:12:39.629Z,11.00
2018-11-02T22:15:13.311Z,11.00
2018-11-02T22:17:46.387Z,11.00
2018-11-02T22:20:23.566Z,11.00
2018-11-02T22:23:10.149Z,11.00
2018-11-02T22:28:33.551Z,10.90
2018-11-02T22:31:05.103Z,10.90
2018-11-02T22:33:39.412Z,10.90
2018-11-02T22:39:27.421Z,10.80
2018-11-02T22:42:08.377Z,10.80
2018-11-02T22:44:46.126Z,10.70
2018-11-02T22:47:26.616Z,10.70
2018-11-02T22:50:04.397Z,10.70
2018-11-02T22:52:37.599Z,10.70
2018-11-02T22:55:17.126Z,10.70
2018-11-02T22:57:49.940Z,10.70
2018-11-02T23:00:20.626Z,10.70
2018-11-02T23:02:54.947Z,10.70
2018-11-02T23:05:27.020Z,10.70
2018-11-02T23:08:11.771Z,10.60
2018-11-02T23:10:42.836Z,10.60
2018-11-02T23:13:13.393Z,10.60
2018-11-02T23:15:55.221Z,10.60
2018-11-02T23:18:29.211Z,10.60
2018-11-02T23:21:01.789Z,10.60
2018-11-02T23:23:34.473Z,10.60
2018-11-02T23:26:04.685Z,10.60
2018-11-02T23:28:35.807Z,10.50
2018-11-02T23:31:06.360Z,10.50
2018-11-02T23:33:38.930Z,10.50
2018-11-02T23:36:08.685Z,10.50
2018-11-02T23:38:39.210Z,10.50
2018-11-02T23:41:08.650Z,10.50
2018-11-02T23:43:37.998Z,10.50
2018-11-02T23:46:09.748Z,10.50
2018-11-02T23:48:39.877Z,10.50
2018-11-02T23:51:09.296Z,10.60
2018-11-02T23:53:39.131Z,10.50
2018-11-02T23:56:08.529Z,10.50
2018-11-02T23:58:38.176Z,10.50
